DLH650 EDDF-UAAA
Flight info
| Callsign | DLH650 |
|---|---|
| Flight time | N/A |
| Altitude | 31000 |
| Route | CINDY5L CINDY Z74 HAREM DCT ASLEP DCT TAKUT L603 BESNI/N0466F350 L605 MIQ DCT ALUTU DCT BIBAG/N0460F370 Q104 AKIMA DCT ARSIN DCT GAZDA DCT TEGRI DCT DINRO N743 UDROS DCT CRM DCT ROLIN DCT TAGAR DCT BT DCT BARAD/N0467F390 M747 LUSAL N199 RASAM L88 METKA B476 TIMGA A480 OTBOR/K0861F390 N147 ELAHA Z621 ARBOL M610 TIPSA |
| Aircraft | A343/H-SDE2E3FGHIJ3J5M1P2RWXYZ/LB1D1 |
Departure
| Time | N/A |
|---|---|
| Airport | Frankfurt Main Airport (EDDF) |
Arrival
| Time | 2026-05-04 19:36 |
|---|---|
| Airport | Almaty International Airport (UAAA) |
| Time | Latitude | Longitude | Altitude | Speed | Heading |
|---|---|---|---|---|---|
| 2026-05-04 17:40 | 41.12434 | 57.51923 | 36888 ft | 524 kts | 81° |
| 2026-05-04 17:41 | 41.13498 | 57.61493 | 36893 ft | 524 kts | 81° |
| 2026-05-04 17:41 | 41.14552 | 57.71050 | 36892 ft | 524 kts | 81° |
| 2026-05-04 17:42 | 41.15593 | 57.80560 | 36900 ft | 524 kts | 81° |
| 2026-05-04 17:42 | 41.16638 | 57.90188 | 36899 ft | 524 kts | 81° |
| 2026-05-04 17:43 | 41.17662 | 57.99694 | 36900 ft | 524 kts | 81° |
| 2026-05-04 17:43 | 41.18685 | 58.09265 | 36904 ft | 524 kts | 81° |
| 2026-05-04 17:44 | 41.19706 | 58.18841 | 36905 ft | 524 kts | 81° |
| 2026-05-04 17:44 | 41.20712 | 58.28428 | 36902 ft | 524 kts | 81° |
| 2026-05-04 17:45 | 41.21709 | 58.38002 | 36905 ft | 522 kts | 81° |
| 2026-05-04 17:45 | 41.22697 | 58.47545 | 36906 ft | 521 kts | 81° |
| 2026-05-04 17:46 | 41.23676 | 58.57085 | 36895 ft | 521 kts | 81° |
| 2026-05-04 17:46 | 41.24648 | 58.66631 | 36914 ft | 522 kts | 81° |
| 2026-05-04 17:47 | 41.25614 | 58.76194 | 36912 ft | 522 kts | 81° |
| 2026-05-04 17:47 | 41.26570 | 58.85744 | 36911 ft | 522 kts | 82° |
| 2026-05-04 17:48 | 41.27518 | 58.95304 | 36916 ft | 522 kts | 82° |
| 2026-05-04 17:48 | 41.28459 | 59.04867 | 36921 ft | 521 kts | 82° |
| 2026-05-04 17:49 | 41.29384 | 59.14347 | 36922 ft | 521 kts | 82° |
| 2026-05-04 17:49 | 41.30308 | 59.23903 | 36922 ft | 521 kts | 82° |
| 2026-05-04 17:50 | 41.31224 | 59.33465 | 36920 ft | 521 kts | 82° |
| 2026-05-04 17:50 | 41.32131 | 59.43010 | 36925 ft | 519 kts | 82° |
| 2026-05-04 17:51 | 41.33026 | 59.52524 | 36926 ft | 518 kts | 82° |
| 2026-05-04 17:51 | 41.33914 | 59.62043 | 36926 ft | 518 kts | 82° |
| 2026-05-04 17:52 | 41.35503 | 59.71367 | 36929 ft | 516 kts | 72° |
| 2026-05-04 17:52 | 41.37653 | 59.80476 | 36925 ft | 515 kts | 71° |
| 2026-05-04 17:53 | 41.39881 | 59.89540 | 36931 ft | 515 kts | 70° |
| 2026-05-04 17:53 | 41.42101 | 59.98617 | 36938 ft | 515 kts | 71° |
| 2026-05-04 17:54 | 41.44298 | 60.07699 | 36944 ft | 514 kts | 71° |
| 2026-05-04 17:54 | 41.46478 | 60.16778 | 36943 ft | 514 kts | 71° |
| 2026-05-04 17:55 | 41.48639 | 60.25859 | 36946 ft | 514 kts | 71° |
| 2026-05-04 17:55 | 41.50777 | 60.34952 | 36947 ft | 513 kts | 72° |
| 2026-05-04 17:56 | 41.52898 | 60.44016 | 36943 ft | 512 kts | 72° |
| 2026-05-04 17:56 | 41.55014 | 60.53082 | 36938 ft | 511 kts | 72° |
| 2026-05-04 17:57 | 41.57125 | 60.62160 | 36940 ft | 512 kts | 72° |
| 2026-05-04 17:57 | 41.59282 | 60.71185 | 36939 ft | 510 kts | 70° |
| 2026-05-04 17:58 | 41.61644 | 60.80038 | 36942 ft | 509 kts | 69° |
| 2026-05-04 17:58 | 41.64042 | 60.88944 | 36947 ft | 509 kts | 69° |
| 2026-05-04 17:59 | 41.66397 | 60.97870 | 36970 ft | 509 kts | 70° |
| 2026-05-04 18:00 | 41.69881 | 61.11274 | 36965 ft | 509 kts | 70° |
| 2026-05-04 18:00 | 41.72194 | 61.20223 | 36965 ft | 509 kts | 70° |
| 2026-05-04 18:01 | 41.74502 | 61.29183 | 36967 ft | 509 kts | 70° |
| 2026-05-04 18:01 | 41.76803 | 61.38144 | 36967 ft | 509 kts | 70° |
| 2026-05-04 18:02 | 41.80239 | 61.51587 | 36956 ft | 509 kts | 70° |
| 2026-05-04 18:02 | 41.82521 | 61.60557 | 36954 ft | 509 kts | 70° |
| 2026-05-04 18:03 | 41.84798 | 61.69540 | 36957 ft | 508 kts | 70° |
| 2026-05-04 18:03 | 41.87067 | 61.78530 | 36954 ft | 508 kts | 70° |
| 2026-05-04 18:04 | 41.89307 | 61.87462 | 36959 ft | 509 kts | 70° |
| 2026-05-04 18:05 | 41.92674 | 62.00965 | 36973 ft | 508 kts | 70° |
| 2026-05-04 18:05 | 41.94911 | 62.09970 | 36959 ft | 508 kts | 70° |
| 2026-05-04 18:06 | 41.98259 | 62.23477 | 36963 ft | 507 kts | 70° |
| 2026-05-04 18:06 | 42.00474 | 62.32467 | 36961 ft | 507 kts | 70° |
| 2026-05-04 18:07 | 42.02684 | 62.41467 | 36962 ft | 507 kts | 70° |
| 2026-05-04 18:07 | 42.04885 | 62.50464 | 36966 ft | 506 kts | 71° |
| 2026-05-04 18:08 | 42.07076 | 62.59453 | 36969 ft | 505 kts | 71° |
| 2026-05-04 18:08 | 42.09259 | 62.68429 | 36963 ft | 505 kts | 71° |
| 2026-05-04 18:09 | 42.13599 | 62.86408 | 36966 ft | 504 kts | 71° |
| 2026-05-04 18:10 | 42.15754 | 62.95400 | 36967 ft | 504 kts | 71° |
| 2026-05-04 18:10 | 42.17906 | 63.04395 | 36970 ft | 504 kts | 71° |
| 2026-05-04 18:11 | 42.20055 | 63.13399 | 36973 ft | 505 kts | 71° |
| 2026-05-04 18:11 | 42.22195 | 63.22409 | 36971 ft | 505 kts | 71° |
| 2026-05-04 18:12 | 42.24332 | 63.31435 | 36973 ft | 505 kts | 71° |
| 2026-05-04 18:12 | 42.26461 | 63.40467 | 36979 ft | 505 kts | 71° |
| 2026-05-04 18:13 | 42.28581 | 63.49492 | 36982 ft | 504 kts | 71° |
| 2026-05-04 18:14 | 42.31746 | 63.63034 | 36985 ft | 504 kts | 71° |
| 2026-05-04 18:14 | 42.33846 | 63.72067 | 36985 ft | 504 kts | 71° |
| 2026-05-04 18:15 | 42.38004 | 63.90055 | 36994 ft | 503 kts | 71° |
| 2026-05-04 18:16 | 42.40078 | 63.99084 | 36992 ft | 503 kts | 71° |
| 2026-05-04 18:16 | 42.42132 | 64.08120 | 36996 ft | 502 kts | 71° |
| 2026-05-04 18:17 | 42.45164 | 64.21679 | 36995 ft | 502 kts | 71° |
| 2026-05-04 18:18 | 42.48212 | 64.35250 | 36993 ft | 502 kts | 71° |
| 2026-05-04 18:18 | 42.50244 | 64.44298 | 36994 ft | 502 kts | 71° |
| 2026-05-04 18:19 | 42.52933 | 64.56346 | 36993 ft | 502 kts | 71° |
| 2026-05-04 18:19 | 42.55271 | 64.66877 | 36993 ft | 502 kts | 71° |
| 2026-05-04 18:20 | 42.57271 | 64.75930 | 36993 ft | 501 kts | 72° |
| 2026-05-04 18:20 | 42.58940 | 64.83513 | 36994 ft | 501 kts | 72° |
| 2026-05-04 18:21 | 42.60927 | 64.92576 | 36996 ft | 501 kts | 72° |
| 2026-05-04 18:21 | 42.62906 | 65.01638 | 36995 ft | 500 kts | 72° |
| 2026-05-04 18:22 | 42.64861 | 65.10634 | 36996 ft | 499 kts | 72° |
| 2026-05-04 18:22 | 42.66821 | 65.19687 | 36996 ft | 499 kts | 72° |
| 2026-05-04 18:23 | 42.68774 | 65.28746 | 37002 ft | 499 kts | 72° |
| 2026-05-04 18:23 | 42.70717 | 65.37803 | 36995 ft | 499 kts | 72° |
| 2026-05-04 18:24 | 42.72652 | 65.46854 | 36997 ft | 498 kts | 72° |
| 2026-05-04 18:24 | 42.74579 | 65.55913 | 36997 ft | 499 kts | 72° |
| 2026-05-04 18:25 | 42.76500 | 65.64978 | 36997 ft | 498 kts | 72° |
| 2026-05-04 18:25 | 42.78411 | 65.74038 | 36997 ft | 498 kts | 72° |
| 2026-05-04 18:26 | 42.80314 | 65.83097 | 36995 ft | 498 kts | 72° |
| 2026-05-04 18:26 | 42.82210 | 65.92168 | 36996 ft | 498 kts | 72° |
| 2026-05-04 18:27 | 42.84099 | 66.01240 | 36999 ft | 497 kts | 72° |
| 2026-05-04 18:27 | 42.85977 | 66.10303 | 36998 ft | 497 kts | 72° |
| 2026-05-04 18:28 | 42.87832 | 66.19372 | 36996 ft | 497 kts | 73° |
| 2026-05-04 18:28 | 42.89679 | 66.28460 | 37002 ft | 497 kts | 73° |
| 2026-05-04 18:29 | 42.91502 | 66.37462 | 37000 ft | 495 kts | 73° |
| 2026-05-04 18:29 | 42.93340 | 66.46582 | 37001 ft | 495 kts | 73° |
| 2026-05-04 18:30 | 42.96055 | 66.60118 | 37010 ft | 495 kts | 73° |
| 2026-05-04 18:31 | 42.97897 | 66.69228 | 36999 ft | 493 kts | 72° |
| 2026-05-04 18:31 | 42.99715 | 66.78193 | 37005 ft | 493 kts | 72° |
| 2026-05-04 18:32 | 43.01531 | 66.87288 | 37006 ft | 493 kts | 73° |
| 2026-05-04 18:32 | 43.03313 | 66.96327 | 37003 ft | 492 kts | 73° |
| 2026-05-04 18:33 | 43.05083 | 67.05347 | 37002 ft | 490 kts | 73° |
| 2026-05-04 18:33 | 43.06834 | 67.14292 | 37009 ft | 490 kts | 73° |
| 2026-05-04 18:34 | 43.08590 | 67.23307 | 37002 ft | 490 kts | 73° |
| 2026-05-04 18:34 | 43.10336 | 67.32308 | 37218 ft | 488 kts | 73° |
| 2026-05-04 18:34 | 43.11206 | 67.36808 | 37421 ft | 488 kts | 73° |
| 2026-05-04 18:35 | 43.12073 | 67.41302 | 37583 ft | 489 kts | 73° |
| 2026-05-04 18:35 | 43.12938 | 67.45794 | 37740 ft | 489 kts | 73° |
| 2026-05-04 18:35 | 43.13806 | 67.50293 | 37905 ft | 489 kts | 73° |
| 2026-05-04 18:35 | 43.14670 | 67.54797 | 38065 ft | 489 kts | 73° |
| 2026-05-04 18:36 | 43.15532 | 67.59308 | 38224 ft | 489 kts | 73° |
| 2026-05-04 18:36 | 43.16392 | 67.63818 | 38372 ft | 489 kts | 73° |
| 2026-05-04 18:36 | 43.17250 | 67.68328 | 38532 ft | 490 kts | 73° |
| 2026-05-04 18:36 | 43.18107 | 67.72839 | 38675 ft | 490 kts | 73° |
| 2026-05-04 18:37 | 43.18963 | 67.77356 | 38792 ft | 490 kts | 73° |
| 2026-05-04 18:37 | 43.19819 | 67.81873 | 38896 ft | 490 kts | 73° |
| 2026-05-04 18:37 | 43.20674 | 67.86395 | 38987 ft | 491 kts | 73° |
| 2026-05-04 18:38 | 43.22382 | 67.95493 | 39010 ft | 492 kts | 74° |
| 2026-05-04 18:38 | 43.24074 | 68.04565 | 39011 ft | 490 kts | 74° |
| 2026-05-04 18:39 | 43.25757 | 68.13620 | 39010 ft | 490 kts | 74° |
| 2026-05-04 18:39 | 43.27433 | 68.22674 | 39017 ft | 490 kts | 74° |
| 2026-05-04 18:40 | 43.29104 | 68.31737 | 39018 ft | 489 kts | 74° |
| 2026-05-04 18:40 | 43.30710 | 68.40809 | 39021 ft | 490 kts | 77° |
| 2026-05-04 18:41 | 43.31813 | 68.50042 | 39020 ft | 491 kts | 80° |
| 2026-05-04 18:41 | 43.32787 | 68.59322 | 39020 ft | 491 kts | 80° |
| 2026-05-04 18:42 | 43.33608 | 68.68578 | 39023 ft | 491 kts | 82° |
| 2026-05-04 18:42 | 43.34332 | 68.77969 | 39024 ft | 491 kts | 82° |
| 2026-05-04 18:43 | 43.35078 | 68.87226 | 39027 ft | 491 kts | 82° |
| 2026-05-04 18:43 | 43.35856 | 68.96546 | 39035 ft | 491 kts | 82° |
| 2026-05-04 18:44 | 43.36635 | 69.05866 | 39042 ft | 491 kts | 82° |
| 2026-05-04 18:44 | 43.37407 | 69.15190 | 39043 ft | 491 kts | 82° |
| 2026-05-04 18:45 | 43.38188 | 69.24507 | 39036 ft | 491 kts | 82° |
| 2026-05-04 18:45 | 43.39003 | 69.33825 | 39049 ft | 491 kts | 82° |
| 2026-05-04 18:46 | 43.39812 | 69.43137 | 39048 ft | 491 kts | 82° |
| 2026-05-04 18:46 | 43.40607 | 69.52459 | 39051 ft | 491 kts | 82° |
| 2026-05-04 18:47 | 43.41391 | 69.61779 | 39052 ft | 491 kts | 82° |
| 2026-05-04 18:47 | 43.42166 | 69.71093 | 39057 ft | 491 kts | 83° |
| 2026-05-04 18:48 | 43.42942 | 69.80427 | 39053 ft | 491 kts | 82° |
| 2026-05-04 18:48 | 43.43736 | 69.89680 | 39056 ft | 491 kts | 82° |
| 2026-05-04 18:49 | 43.44540 | 69.99072 | 39057 ft | 491 kts | 82° |
| 2026-05-04 18:49 | 43.45320 | 70.08331 | 39052 ft | 491 kts | 83° |
| 2026-05-04 18:50 | 43.46094 | 70.17657 | 39055 ft | 490 kts | 83° |
| 2026-05-04 18:50 | 43.46861 | 70.26988 | 39059 ft | 490 kts | 83° |
| 2026-05-04 18:51 | 43.47620 | 70.36314 | 39056 ft | 490 kts | 83° |
| 2026-05-04 18:51 | 43.48372 | 70.45649 | 39054 ft | 490 kts | 83° |
| 2026-05-04 18:52 | 43.49116 | 70.54984 | 39060 ft | 490 kts | 83° |
| 2026-05-04 18:52 | 43.49852 | 70.64314 | 39066 ft | 490 kts | 83° |
| 2026-05-04 18:53 | 43.50578 | 70.73617 | 39059 ft | 490 kts | 83° |
| 2026-05-04 18:53 | 43.51302 | 70.82992 | 39060 ft | 490 kts | 83° |
| 2026-05-04 18:54 | 43.52017 | 70.92327 | 39061 ft | 490 kts | 84° |
| 2026-05-04 18:54 | 43.52710 | 71.01661 | 39064 ft | 490 kts | 84° |
| 2026-05-04 18:55 | 43.53393 | 71.11006 | 39064 ft | 490 kts | 84° |
| 2026-05-04 18:55 | 43.54407 | 71.25019 | 39066 ft | 490 kts | 84° |
| 2026-05-04 18:56 | 43.55076 | 71.34372 | 39066 ft | 490 kts | 84° |
| 2026-05-04 18:56 | 43.55737 | 71.43720 | 39066 ft | 490 kts | 84° |
| 2026-05-04 18:57 | 43.56391 | 71.53074 | 39071 ft | 490 kts | 84° |
| 2026-05-04 18:57 | 43.57036 | 71.62419 | 39070 ft | 489 kts | 84° |
| 2026-05-04 18:58 | 43.57669 | 71.71697 | 39069 ft | 489 kts | 84° |
| 2026-05-04 18:58 | 43.58299 | 71.81039 | 39070 ft | 489 kts | 84° |
| 2026-05-04 18:59 | 43.58921 | 71.90387 | 39077 ft | 489 kts | 84° |
| 2026-05-04 18:59 | 43.59535 | 71.99735 | 39071 ft | 489 kts | 85° |
| 2026-05-04 19:00 | 43.60142 | 72.09074 | 39073 ft | 489 kts | 85° |
| 2026-05-04 19:00 | 43.60741 | 72.18421 | 39076 ft | 489 kts | 85° |
| 2026-05-04 19:01 | 43.61332 | 72.27772 | 39078 ft | 489 kts | 85° |
| 2026-05-04 19:01 | 43.61915 | 72.37110 | 39076 ft | 489 kts | 85° |
| 2026-05-04 19:02 | 43.62491 | 72.46460 | 39078 ft | 489 kts | 85° |
| 2026-05-04 19:02 | 43.63059 | 72.55806 | 39077 ft | 489 kts | 85° |
| 2026-05-04 19:03 | 43.63619 | 72.65152 | 39077 ft | 489 kts | 85° |
| 2026-05-04 19:03 | 43.64172 | 72.74508 | 39075 ft | 489 kts | 85° |
| 2026-05-04 19:04 | 43.64718 | 72.83874 | 39082 ft | 489 kts | 85° |
| 2026-05-04 19:04 | 43.65252 | 72.93168 | 39081 ft | 489 kts | 85° |
| 2026-05-04 19:05 | 43.65783 | 73.02542 | 39085 ft | 490 kts | 85° |
| 2026-05-04 19:05 | 43.66307 | 73.11923 | 39082 ft | 490 kts | 85° |
| 2026-05-04 19:06 | 43.66823 | 73.21305 | 39084 ft | 490 kts | 85° |
| 2026-05-04 19:06 | 43.67331 | 73.30689 | 39090 ft | 490 kts | 85° |
| 2026-05-04 19:07 | 43.67832 | 73.40088 | 39087 ft | 491 kts | 85° |
| 2026-05-04 19:07 | 43.68326 | 73.49491 | 39087 ft | 491 kts | 85° |
| 2026-05-04 19:08 | 43.68812 | 73.58900 | 39087 ft | 491 kts | 86° |
| 2026-05-04 19:08 | 43.69211 | 73.66724 | 39088 ft | 491 kts | 86° |
| 2026-05-04 19:09 | 43.69526 | 73.76163 | 39091 ft | 492 kts | 91° |
| 2026-05-04 19:09 | 43.69344 | 73.85615 | 39088 ft | 492 kts | 92° |
| 2026-05-04 19:10 | 43.69118 | 73.93542 | 39091 ft | 492 kts | 92° |
| 2026-05-04 19:10 | 43.68781 | 74.04527 | 39092 ft | 493 kts | 92° |
| 2026-05-04 19:11 | 43.68491 | 74.13996 | 39092 ft | 494 kts | 92° |
| 2026-05-04 19:11 | 43.68201 | 74.23477 | 39098 ft | 491 kts | 92° |
| 2026-05-04 19:12 | 43.67779 | 74.37368 | 39098 ft | 479 kts | 93° |
| 2026-05-04 19:13 | 43.67488 | 74.46569 | 39102 ft | 480 kts | 93° |
| 2026-05-04 19:13 | 43.67190 | 74.55784 | 39106 ft | 480 kts | 93° |
| 2026-05-04 19:14 | 43.66884 | 74.64997 | 39110 ft | 480 kts | 93° |
| 2026-05-04 19:14 | 43.66571 | 74.74213 | 39111 ft | 480 kts | 93° |
| 2026-05-04 19:15 | 43.66250 | 74.83425 | 39115 ft | 480 kts | 93° |
| 2026-05-04 19:15 | 43.65922 | 74.92638 | 39101 ft | 480 kts | 93° |
| 2026-05-04 19:15 | 43.65756 | 74.97238 | 38767 ft | 479 kts | 93° |
| 2026-05-04 19:16 | 43.65588 | 75.01830 | 38249 ft | 478 kts | 93° |
| 2026-05-04 19:16 | 43.65418 | 75.06422 | 37622 ft | 480 kts | 93° |
| 2026-05-04 19:16 | 43.65246 | 75.11021 | 37027 ft | 481 kts | 94° |
| 2026-05-04 19:16 | 43.65071 | 75.15645 | 36432 ft | 482 kts | 94° |
| 2026-05-04 19:17 | 43.64894 | 75.20275 | 35769 ft | 485 kts | 94° |
| 2026-05-04 19:17 | 43.64714 | 75.24931 | 35092 ft | 488 kts | 94° |
| 2026-05-04 19:17 | 43.64533 | 75.29562 | 34394 ft | 491 kts | 94° |
| 2026-05-04 19:17 | 43.64346 | 75.34285 | 33606 ft | 494 kts | 94° |
| 2026-05-04 19:18 | 43.64157 | 75.39029 | 32825 ft | 496 kts | 94° |
| 2026-05-04 19:18 | 43.63965 | 75.43793 | 32073 ft | 497 kts | 94° |
| 2026-05-04 19:18 | 43.63771 | 75.48555 | 31299 ft | 498 kts | 94° |
| 2026-05-04 19:18 | 43.63575 | 75.53330 | 30557 ft | 499 kts | 94° |
| 2026-05-04 19:19 | 43.63379 | 75.58105 | 29756 ft | 499 kts | 94° |
| 2026-05-04 19:19 | 43.63176 | 75.62884 | 28930 ft | 498 kts | 94° |
| 2026-05-04 19:19 | 43.62972 | 75.67641 | 28282 ft | 494 kts | 94° |
| 2026-05-04 19:19 | 43.62768 | 75.72360 | 27670 ft | 490 kts | 94° |
| 2026-05-04 19:20 | 43.62564 | 75.77022 | 27075 ft | 485 kts | 94° |
| 2026-05-04 19:20 | 43.62361 | 75.81645 | 26475 ft | 481 kts | 93° |
| 2026-05-04 19:20 | 43.62158 | 75.86230 | 25880 ft | 477 kts | 93° |
| 2026-05-04 19:20 | 43.61955 | 75.90778 | 25285 ft | 473 kts | 93° |
| 2026-05-04 19:21 | 43.61752 | 75.95289 | 24689 ft | 469 kts | 93° |
| 2026-05-04 19:21 | 43.61548 | 75.99769 | 24092 ft | 466 kts | 93° |
| 2026-05-04 19:21 | 43.61344 | 76.04217 | 23450 ft | 463 kts | 93° |
| 2026-05-04 19:21 | 43.61140 | 76.08635 | 22802 ft | 459 kts | 93° |
| 2026-05-04 19:22 | 43.60936 | 76.13005 | 22256 ft | 454 kts | 93° |
| 2026-05-04 19:22 | 43.60735 | 76.17275 | 22116 ft | 439 kts | 93° |
| 2026-05-04 19:22 | 43.60539 | 76.21405 | 22009 ft | 424 kts | 93° |
| 2026-05-04 19:22 | 43.60313 | 76.25343 | 21852 ft | 412 kts | 97° |
| 2026-05-04 19:23 | 43.59572 | 76.29097 | 21737 ft | 400 kts | 112° |
| 2026-05-04 19:23 | 43.58783 | 76.32709 | 21366 ft | 392 kts | 96° |
| 2026-05-04 19:23 | 43.58616 | 76.36487 | 20516 ft | 399 kts | 90° |
| 2026-05-04 19:23 | 43.58560 | 76.40353 | 19624 ft | 408 kts | 90° |
| 2026-05-04 19:24 | 43.58464 | 76.44301 | 18776 ft | 415 kts | 91° |
| 2026-05-04 19:24 | 43.58330 | 76.48261 | 17683 ft | 410 kts | 92° |
| 2026-05-04 19:24 | 43.58176 | 76.52169 | 16360 ft | 406 kts | 92° |
| 2026-05-04 19:24 | 43.58011 | 76.56023 | 15137 ft | 400 kts | 93° |
| 2026-05-04 19:25 | 43.57842 | 76.59815 | 14017 ft | 392 kts | 93° |
| 2026-05-04 19:25 | 43.57672 | 76.63528 | 12792 ft | 384 kts | 93° |
| 2026-05-04 19:25 | 43.57502 | 76.67172 | 11672 ft | 376 kts | 93° |
| 2026-05-04 19:25 | 43.57337 | 76.70667 | 11123 ft | 352 kts | 93° |
| 2026-05-04 19:26 | 43.57182 | 76.73895 | 10683 ft | 323 kts | 93° |
| 2026-05-04 19:26 | 43.57039 | 76.76880 | 10291 ft | 301 kts | 93° |
| 2026-05-04 19:26 | 43.56905 | 76.79650 | 10170 ft | 281 kts | 93° |
| 2026-05-04 19:26 | 43.56777 | 76.82289 | 10074 ft | 274 kts | 93° |
| 2026-05-04 19:27 | 43.56650 | 76.84915 | 9808 ft | 275 kts | 93° |
| 2026-05-04 19:27 | 43.56521 | 76.87555 | 9485 ft | 277 kts | 93° |
| 2026-05-04 19:27 | 43.56390 | 76.90216 | 9169 ft | 279 kts | 93° |
| 2026-05-04 19:27 | 43.56258 | 76.92890 | 8849 ft | 281 kts | 93° |
| 2026-05-04 19:28 | 43.56125 | 76.95571 | 8525 ft | 280 kts | 93° |
| 2026-05-04 19:28 | 43.55991 | 76.98252 | 8215 ft | 280 kts | 93° |
| 2026-05-04 19:28 | 43.55857 | 77.00922 | 7896 ft | 279 kts | 93° |
| 2026-05-04 19:28 | 43.55723 | 77.03584 | 7579 ft | 278 kts | 93° |
| 2026-05-04 19:29 | 43.55589 | 77.06236 | 7269 ft | 277 kts | 93° |
| 2026-05-04 19:29 | 43.55455 | 77.08864 | 7060 ft | 271 kts | 94° |
| 2026-05-04 19:29 | 43.55324 | 77.11418 | 6945 ft | 263 kts | 93° |
| 2026-05-04 19:29 | 43.55196 | 77.13899 | 6796 ft | 256 kts | 93° |
| 2026-05-04 19:30 | 43.55071 | 77.16331 | 6565 ft | 253 kts | 94° |
| 2026-05-04 19:30 | 43.54933 | 77.18744 | 6291 ft | 252 kts | 96° |
| 2026-05-04 19:30 | 43.54418 | 77.21043 | 5992 ft | 253 kts | 120° |
| 2026-05-04 19:30 | 43.53217 | 77.22786 | 5717 ft | 253 kts | 142° |
| 2026-05-04 19:31 | 43.51761 | 77.24175 | 5395 ft | 255 kts | 147° |
| 2026-05-04 19:31 | 43.50311 | 77.25473 | 5252 ft | 248 kts | 150° |
| 2026-05-04 19:31 | 43.48743 | 77.26320 | 5098 ft | 240 kts | 172° |
| 2026-05-04 19:31 | 43.47112 | 77.26142 | 4850 ft | 236 kts | 201° |
| 2026-05-04 19:32 | 43.45733 | 77.25007 | 4680 ft | 228 kts | 220° |
| 2026-05-04 19:32 | 43.44732 | 77.23381 | 4580 ft | 219 kts | 239° |
| 2026-05-04 19:32 | 43.43965 | 77.21615 | 4462 ft | 212 kts | 239° |
| 2026-05-04 19:32 | 43.43147 | 77.19968 | 4358 ft | 204 kts | 235° |
| 2026-05-04 19:33 | 43.42370 | 77.18426 | 4328 ft | 189 kts | 237° |
| 2026-05-04 19:33 | 43.41650 | 77.16974 | 4117 ft | 179 kts | 237° |
| 2026-05-04 19:33 | 43.40978 | 77.15612 | 3895 ft | 165 kts | 237° |
| 2026-05-04 19:33 | 43.40361 | 77.14364 | 3674 ft | 151 kts | 237° |
| 2026-05-04 19:34 | 43.39793 | 77.13212 | 3491 ft | 142 kts | 237° |
| 2026-05-04 19:34 | 43.39240 | 77.12089 | 3312 ft | 142 kts | 237° |
| 2026-05-04 19:34 | 43.38686 | 77.10967 | 3126 ft | 142 kts | 231° |
| 2026-05-04 19:34 | 43.38125 | 77.09837 | 2912 ft | 145 kts | 237° |
| 2026-05-04 19:35 | 43.37574 | 77.08671 | 2709 ft | 145 kts | 234° |
| 2026-05-04 19:35 | 43.37004 | 77.07549 | 2503 ft | 142 kts | 233° |
| 2026-05-04 19:35 | 43.36455 | 77.06428 | 2323 ft | 141 kts | 234° |
| 2026-05-04 19:35 | 43.35919 | 77.05369 | 2234 ft | 117 kts | 236° |
| 2026-05-04 19:36 | 43.35559 | 77.04639 | 2228 ft | 75 kts | 235° |
| 2026-05-04 19:36 | 43.35293 | 77.04103 | 2230 ft | 62 kts | 236° |
| 2026-05-04 19:36 | 43.35069 | 77.03652 | 2225 ft | 53 kts | 236° |
| 2026-05-04 19:36 | 43.34878 | 77.03264 | 2230 ft | 46 kts | 236° |
| 2026-05-04 19:37 | 43.34707 | 77.02921 | 2226 ft | 41 kts | 235° |
| 2026-05-04 19:37 | 43.34554 | 77.02615 | 2228 ft | 37 kts | 236° |
| 2026-05-04 19:37 | 43.34489 | 77.02440 | 2236 ft | 13 kts | 263° |
| 2026-05-04 19:37 | 43.34497 | 77.02309 | 2232 ft | 14 kts | 273° |
| 2026-05-04 19:38 | 43.34502 | 77.02165 | 2234 ft | 16 kts | 273° |
| 2026-05-04 19:38 | 43.34509 | 77.02013 | 2234 ft | 16 kts | 274° |
| 2026-05-04 19:38 | 43.34518 | 77.01857 | 2233 ft | 17 kts | 274° |
| 2026-05-04 19:38 | 43.34526 | 77.01692 | 2226 ft | 18 kts | 274° |
| 2026-05-04 19:39 | 43.34533 | 77.01531 | 2233 ft | 9 kts | 273° |
| 2026-05-04 19:39 | 43.34555 | 77.01486 | 2232 ft | 6 kts | 331° |
| 2026-05-04 19:39 | 43.34595 | 77.01468 | 2225 ft | 6 kts | 356° |
| 2026-05-04 19:39 | 43.34644 | 77.01460 | 2227 ft | 8 kts | 344° |
| 2026-05-04 19:40 | 43.34706 | 77.01442 | 2231 ft | 10 kts | 5° |
| 2026-05-04 19:40 | 43.34776 | 77.01477 | 2230 ft | 12 kts | 21° |
| 2026-05-04 19:40 | 43.34855 | 77.01509 | 2230 ft | 12 kts | 357° |
| 2026-05-04 19:40 | 43.34931 | 77.01465 | 2226 ft | 12 kts | 336° |
| 2026-05-04 19:41 | 43.35011 | 77.01417 | 2229 ft | 13 kts | 336° |
| 2026-05-04 19:41 | 43.35063 | 77.01372 | 2232 ft | 2 kts | 295° |
| 2026-05-04 19:41 | 43.35061 | 77.01353 | 2233 ft | 3 kts | 259° |
| 2026-05-04 19:41 | 43.35051 | 77.01313 | 2228 ft | 5 kts | 250° |
| 2026-05-04 19:42 | 43.35036 | 77.01265 | 2227 ft | 5 kts | 247° |
| 2026-05-04 19:42 | 43.35034 | 77.01260 | 2227 ft | 0 kts | 246° |